createdAt,value
2023-05-15T00:01:57.519Z,98379.00
2023-05-15T00:04:02.977Z,98374.03
2023-05-15T00:06:09.345Z,98370.59
2023-05-15T00:08:14.495Z,98370.28
2023-05-15T00:10:23.307Z,98367.22
2023-05-15T00:12:29.642Z,98372.25
2023-05-15T00:14:34.708Z,98372.25
2023-05-15T00:16:39.869Z,98366.34
2023-05-15T00:18:45.315Z,98372.13
2023-05-15T00:20:50.478Z,98369.53
2023-05-15T00:22:55.867Z,98365.16
2023-05-15T00:25:00.905Z,98364.88
2023-05-15T00:27:09.245Z,98363.03
2023-05-15T00:29:15.348Z,98355.47
2023-05-15T00:31:20.520Z,98344.66
2023-05-15T00:33:25.597Z,98344.56
2023-05-15T00:35:30.856Z,98347.03
2023-05-15T00:37:36.377Z,98346.00
2023-05-15T00:39:42.254Z,98344.53
2023-05-15T00:41:50.078Z,98348.00
2023-05-15T00:44:01.146Z,98346.34
2023-05-15T00:46:07.938Z,98337.94
2023-05-15T00:48:14.108Z,98341.16
2023-05-15T00:50:20.944Z,98339.31
2023-05-15T00:52:26.977Z,98337.78
2023-05-15T00:54:32.537Z,98348.81
2023-05-15T00:56:38.996Z,98342.38
2023-05-15T00:58:45.520Z,98343.59
2023-05-15T01:00:56.381Z,98349.44
2023-05-15T01:03:02.216Z,98344.44
2023-05-15T01:05:09.281Z,98341.28
2023-05-15T01:07:15.128Z,98339.13
2023-05-15T01:09:21.534Z,98336.75
2023-05-15T01:11:36.558Z,98340.16
2023-05-15T01:13:42.559Z,98339.00
2023-05-15T01:15:47.730Z,98333.84
2023-05-15T01:17:56.304Z,98344.16
2023-05-15T01:20:02.920Z,98344.31
2023-05-15T01:22:48.547Z,98347.78
2023-05-15T01:25:29.407Z,98342.03
2023-05-15T01:27:42.377Z,98336.94
2023-05-15T01:29:59.290Z,98341.00
2023-05-15T01:32:12.099Z,98331.84
2023-05-15T01:34:21.091Z,98341.09
2023-05-15T01:36:36.136Z,98337.00
2023-05-15T01:38:45.491Z,98326.28
2023-05-15T01:40:55.121Z,98336.25
2023-05-15T01:43:10.914Z,98331.25
2023-05-15T01:45:17.303Z,98329.53
2023-05-15T01:47:32.986Z,98328.63
2023-05-15T01:49:41.214Z,98329.66
2023-05-15T01:51:50.155Z,98331.25
2023-05-15T01:53:59.503Z,98339.03
2023-05-15T01:56:06.707Z,98330.03
2023-05-15T01:58:15.740Z,98333.19
2023-05-15T02:00:22.275Z,98331.28
2023-05-15T02:02:29.324Z,98326.28
2023-05-15T02:04:37.379Z,98339.94
2023-05-15T02:06:43.694Z,98333.63
2023-05-15T02:08:49.925Z,98335.47
2023-05-15T02:10:56.221Z,98334.69
2023-05-15T02:13:03.571Z,98330.53
2023-05-15T02:15:14.287Z,98331.38
2023-05-15T02:17:19.861Z,98327.28
2023-05-15T02:19:25.680Z,98325.63
2023-05-15T02:21:30.913Z,98326.16
2023-05-15T02:23:36.675Z,98324.97
2023-05-15T02:25:51.729Z,98316.78
2023-05-15T02:28:03.159Z,98324.41
2023-05-15T02:30:32.172Z,98317.88
2023-05-15T02:32:50.005Z,98320.47
2023-05-15T02:35:07.620Z,98311.34
2023-05-15T02:37:19.724Z,98318.13
2023-05-15T02:39:26.358Z,98307.38
2023-05-15T02:41:32.505Z,98313.09
2023-05-15T02:43:39.370Z,98308.06
2023-05-15T02:45:49.834Z,98310.47
2023-05-15T02:47:56.194Z,98312.91
2023-05-15T02:50:02.512Z,98310.38
2023-05-15T02:52:10.993Z,98312.50
2023-05-15T02:54:16.806Z,98311.72
2023-05-15T02:56:22.808Z,98314.13
2023-05-15T02:58:28.032Z,98309.03
2023-05-15T03:00:33.569Z,98306.41
2023-05-15T03:02:41.615Z,98304.19
2023-05-15T03:04:47.983Z,98304.19
2023-05-15T03:06:53.151Z,98313.44
2023-05-15T03:08:58.255Z,98311.84
2023-05-15T03:11:03.343Z,98310.38
2023-05-15T03:13:08.491Z,98311.97
2023-05-15T03:15:14.027Z,98309.47
2023-05-15T03:17:19.078Z,98302.88
2023-05-15T03:19:27.538Z,98297.84
2023-05-15T03:21:32.651Z,98291.19
2023-05-15T03:23:38.234Z,98301.16
2023-05-15T03:25:43.938Z,98298.53
2023-05-15T03:27:49.350Z,98300.13
2023-05-15T03:29:54.408Z,98305.09
2023-05-15T03:31:59.875Z,98306.63
2023-05-15T03:34:05.510Z,98298.28
2023-05-15T03:36:13.225Z,98299.78
2023-05-15T03:38:18.293Z,98305.63
2023-05-15T03:40:23.842Z,98299.84
2023-05-15T03:42:29.879Z,98296.53
2023-05-15T03:44:35.174Z,98300.78
2023-05-15T03:46:40.614Z,98308.22
2023-05-15T03:48:49.402Z,98302.28
2023-05-15T03:50:55.114Z,98302.34
2023-05-15T03:53:03.575Z,98302.34
2023-05-15T03:55:10.414Z,98301.56
2023-05-15T03:57:16.293Z,98304.13
2023-05-15T03:59:21.391Z,98304.94
2023-05-15T04:01:26.547Z,98303.34
2023-05-15T04:03:32.232Z,98305.84
2023-05-15T04:05:37.560Z,98300.84
2023-05-15T04:07:42.917Z,98304.84
2023-05-15T04:09:50.563Z,98304.84
2023-05-15T04:11:55.675Z,98305.69
2023-05-15T04:14:01.048Z,98306.41
2023-05-15T04:16:07.402Z,98303.00
2023-05-15T04:18:12.787Z,98299.66
2023-05-15T04:20:20.304Z,98301.16
2023-05-15T04:22:25.378Z,98302.84
2023-05-15T04:24:31.187Z,98296.88
2023-05-15T04:26:39.403Z,98296.91
2023-05-15T04:29:00.285Z,98290.78
2023-05-15T04:31:09.272Z,98290.72
2023-05-15T04:33:14.772Z,98293.03
2023-05-15T04:35:20.262Z,98298.78
2023-05-15T04:37:25.615Z,98296.81
2023-05-15T04:39:31.311Z,98300.09
2023-05-15T04:41:38.948Z,98298.06
2023-05-15T04:43:44.564Z,98296.25
2023-05-15T04:45:49.689Z,98294.31
2023-05-15T04:47:55.177Z,98300.78
2023-05-15T04:50:00.329Z,98295.69
2023-05-15T04:52:05.514Z,98297.28
2023-05-15T04:54:13.820Z,98298.03
2023-05-15T04:56:18.956Z,98298.69
2023-05-15T04:58:26.666Z,98296.88
2023-05-15T05:00:32.416Z,98287.09
2023-05-15T05:02:37.494Z,98303.66
2023-05-15T05:04:45.867Z,98295.31
2023-05-15T05:06:51.556Z,98292.72
2023-05-15T05:08:57.023Z,98294.44
2023-05-15T05:11:02.413Z,98301.69
2023-05-15T05:13:07.505Z,98291.66
2023-05-15T05:15:16.089Z,98298.41
2023-05-15T05:17:21.193Z,98295.69
2023-05-15T05:19:26.301Z,98304.00
2023-05-15T05:21:31.457Z,98301.25
2023-05-15T05:23:36.555Z,98300.22
2023-05-15T05:25:41.607Z,98298.41
2023-05-15T05:27:46.746Z,98296.16
2023-05-15T05:29:53.537Z,98282.44
2023-05-15T05:32:01.470Z,98295.69
2023-05-15T05:34:06.711Z,98299.88
2023-05-15T05:36:13.000Z,98289.66
2023-05-15T05:38:18.083Z,98299.63
2023-05-15T05:40:23.623Z,98300.41
2023-05-15T05:42:28.682Z,98300.22
2023-05-15T05:44:34.674Z,98301.72
2023-05-15T05:46:39.977Z,98299.66
2023-05-15T05:48:48.065Z,98300.78
2023-05-15T05:50:53.328Z,98292.19
2023-05-15T05:52:58.422Z,98295.34
2023-05-15T05:55:03.714Z,98295.78
2023-05-15T05:57:09.090Z,98293.72
2023-05-15T05:59:14.256Z,98289.03
2023-05-15T06:01:19.390Z,98289.69
2023-05-15T06:03:25.387Z,98286.09
2023-05-15T06:05:34.609Z,98292.09
2023-05-15T06:07:40.305Z,98290.88
2023-05-15T06:09:47.100Z,98289.78
2023-05-15T06:11:52.432Z,98296.19
2023-05-15T06:13:57.473Z,98286.00
2023-05-15T06:16:02.592Z,98283.84
2023-05-15T06:18:07.729Z,98285.13
2023-05-15T06:20:14.901Z,98287.28
2023-05-15T06:22:22.544Z,98288.41
2023-05-15T06:24:27.742Z,98286.31
2023-05-15T06:26:33.332Z,98283.84
2023-05-15T06:28:38.670Z,98282.09
2023-05-15T06:30:44.073Z,98286.19
2023-05-15T06:32:49.328Z,98283.28
2023-05-15T06:34:54.554Z,98277.63
2023-05-15T06:36:59.598Z,98281.75
2023-05-15T06:39:10.752Z,98282.75
2023-05-15T06:41:16.093Z,98283.97
2023-05-15T06:43:21.319Z,98288.78
2023-05-15T06:45:27.448Z,98297.56
2023-05-15T06:47:32.893Z,98299.09
2023-05-15T06:49:38.014Z,98288.41
2023-05-15T06:51:43.447Z,98286.25
2023-05-15T06:53:48.542Z,98293.69
2023-05-15T06:55:56.689Z,98291.94
2023-05-15T06:58:02.019Z,98297.41
2023-05-15T07:00:09.681Z,98292.28
2023-05-15T07:02:15.018Z,98293.69
2023-05-15T07:04:20.160Z,98292.91
2023-05-15T07:06:26.112Z,98294.78
2023-05-15T07:08:31.742Z,98290.84
2023-05-15T07:10:36.845Z,98288.53
2023-05-15T07:12:44.910Z,98287.03
2023-05-15T07:14:50.010Z,98289.94
2023-05-15T07:16:55.121Z,98291.75
2023-05-15T07:19:00.252Z,98277.56
2023-05-15T07:21:05.649Z,98282.97
2023-05-15T07:23:11.093Z,98290.19
2023-05-15T07:25:22.243Z,98287.78
2023-05-15T07:27:27.364Z,98288.06
2023-05-15T07:29:35.001Z,98281.25
2023-05-15T07:31:40.853Z,98282.41
2023-05-15T07:33:46.333Z,98283.38
2023-05-15T07:35:53.156Z,98270.97
2023-05-15T07:37:58.268Z,98277.69
2023-05-15T07:40:03.597Z,98267.53
2023-05-15T07:42:09.555Z,98274.44
2023-05-15T07:44:14.643Z,98275.59
2023-05-15T07:46:22.374Z,98270.44
2023-05-15T07:48:27.508Z,98272.25
2023-05-15T07:50:32.641Z,98268.75
2023-05-15T07:52:37.715Z,98270.31
2023-05-15T07:54:44.023Z,98269.59
2023-05-15T07:56:49.156Z,98282.25
2023-05-15T07:58:54.314Z,98278.59
2023-05-15T08:00:59.569Z,98282.81
2023-05-15T08:03:07.543Z,98274.66
2023-05-15T08:05:12.973Z,98267.09
2023-05-15T08:07:18.399Z,98267.63
2023-05-15T08:09:24.017Z,98263.09
2023-05-15T08:11:29.116Z,98264.50
2023-05-15T08:13:34.695Z,98265.78
2023-05-15T08:15:39.811Z,98269.56
2023-05-15T08:17:45.096Z,98264.16
2023-05-15T08:19:53.192Z,98266.31
2023-05-15T08:21:58.604Z,98267.38
2023-05-15T08:24:04.488Z,98262.16
2023-05-15T08:26:09.523Z,98270.75
2023-05-15T08:28:14.580Z,98263.56
2023-05-15T08:30:20.374Z,98259.41
2023-05-15T08:32:25.629Z,98259.34
2023-05-15T08:34:31.557Z,98257.16
2023-05-15T08:36:39.693Z,98248.00
2023-05-15T08:38:44.763Z,98253.59
2023-05-15T08:40:53.170Z,98255.78
2023-05-15T08:43:01.814Z,98254.38
2023-05-15T08:45:08.599Z,98244.59
2023-05-15T08:47:14.114Z,98247.84
2023-05-15T08:49:29.702Z,98243.25
2023-05-15T08:51:34.884Z,98247.84
2023-05-15T08:53:42.706Z,98243.16
2023-05-15T08:55:48.624Z,98249.81
2023-05-15T08:57:54.209Z,98244.59
2023-05-15T09:00:00.823Z,98239.66
2023-05-15T09:02:06.071Z,98240.09
2023-05-15T09:04:11.316Z,98240.91
2023-05-15T09:06:17.366Z,98244.59
2023-05-15T09:08:24.586Z,98234.69
2023-05-15T09:10:33.343Z,98229.09
2023-05-15T09:12:43.938Z,98236.41
2023-05-15T09:14:49.532Z,98232.34
2023-05-15T09:16:55.465Z,98235.00
2023-05-15T09:19:03.089Z,98229.22
2023-05-15T09:21:26.743Z,98235.53
2023-05-15T09:23:31.838Z,98222.00
2023-05-15T09:25:42.986Z,98222.31
2023-05-15T09:27:48.522Z,98216.88
2023-05-15T09:29:56.621Z,98214.94
2023-05-15T09:32:07.268Z,98217.38
2023-05-15T09:34:12.800Z,98215.56
2023-05-15T09:36:25.810Z,98215.31
2023-05-15T09:38:31.032Z,98217.53
2023-05-15T09:40:36.173Z,98216.47
2023-05-15T09:42:44.056Z,98206.78
2023-05-15T09:44:50.224Z,98217.06
2023-05-15T09:46:55.864Z,98209.59
2023-05-15T09:49:02.376Z,98205.47
2023-05-15T09:51:17.591Z,98206.78
2023-05-15T09:53:24.272Z,98211.38
2023-05-15T09:55:29.869Z,98204.22
2023-05-15T09:57:35.270Z,98214.72
2023-05-15T09:59:47.438Z,98200.94
2023-05-15T10:01:54.720Z,98205.88
2023-05-15T10:04:03.850Z,98194.28
2023-05-15T10:06:09.898Z,98195.56
2023-05-15T10:08:16.056Z,98195.81
2023-05-15T10:10:21.440Z,98196.94
2023-05-15T10:12:27.656Z,98203.72
2023-05-15T10:14:33.507Z,98199.63
2023-05-15T10:16:43.204Z,98194.78
2023-05-15T10:18:49.147Z,98198.72
2023-05-15T10:20:54.580Z,98189.28
2023-05-15T10:23:00.893Z,98180.16
2023-05-15T10:25:16.193Z,98185.50
2023-05-15T10:27:23.066Z,98187.28
2023-05-15T10:29:30.203Z,98179.03
2023-05-15T10:31:36.550Z,98171.63
2023-05-15T10:33:44.879Z,98171.78
2023-05-15T10:35:52.276Z,98164.50
2023-05-15T10:37:58.038Z,98166.69
2023-05-15T10:40:04.615Z,98166.50
2023-05-15T10:42:10.947Z,98160.34
2023-05-15T10:44:17.552Z,98157.75
2023-05-15T10:46:24.193Z,98146.91
2023-05-15T10:48:30.331Z,98149.28
2023-05-15T10:50:40.495Z,98146.88
2023-05-15T10:52:58.568Z,98143.84
2023-05-15T10:55:04.582Z,98139.06
2023-05-15T10:57:10.632Z,98141.50
2023-05-15T10:59:15.952Z,98128.28
2023-05-15T11:01:32.350Z,98127.44
2023-05-15T11:03:49.457Z,98126.91
2023-05-15T11:06:12.947Z,98127.66
2023-05-15T11:08:30.402Z,98122.75
2023-05-15T11:10:44.901Z,98117.22
2023-05-15T11:12:59.670Z,98124.34
2023-05-15T11:15:24.112Z,98118.75
2023-05-15T11:17:34.505Z,98107.72
2023-05-15T11:20:00.648Z,98105.16
2023-05-15T11:22:21.896Z,98106.78
2023-05-15T11:24:33.631Z,98117.13
2023-05-15T11:26:43.943Z,98113.97
2023-05-15T11:28:49.016Z,98109.50
2023-05-15T11:30:55.852Z,98116.19
2023-05-15T11:33:04.034Z,98111.28
2023-05-15T11:35:13.929Z,98108.00
2023-05-15T11:37:21.112Z,98101.53
2023-05-15T11:39:28.041Z,98100.78
2023-05-15T11:41:37.512Z,98100.19
2023-05-15T11:43:44.248Z,98093.91
2023-05-15T11:45:52.955Z,98099.72
2023-05-15T11:47:58.459Z,98091.47
2023-05-15T11:50:04.126Z,98095.06
2023-05-15T11:52:09.747Z,98093.34
2023-05-15T11:54:15.995Z,98097.44
2023-05-15T11:56:22.991Z,98092.50
2023-05-15T11:58:30.664Z,98094.44
2023-05-15T12:00:36.198Z,98096.09
2023-05-15T12:02:41.284Z,98091.78
2023-05-15T12:04:46.703Z,98093.34
2023-05-15T12:06:51.865Z,98098.72
2023-05-15T12:08:57.381Z,98093.81
2023-05-15T12:11:04.287Z,98097.81
2023-05-15T12:13:09.339Z,98100.00
2023-05-15T12:15:19.790Z,98095.16
2023-05-15T12:17:24.856Z,98099.16
2023-05-15T12:19:31.435Z,98104.66
2023-05-15T12:21:43.283Z,98090.28
2023-05-15T12:24:07.252Z,98087.66
2023-05-15T12:26:14.187Z,98085.78
2023-05-15T12:28:20.135Z,98084.19
2023-05-15T12:30:28.392Z,98091.41
2023-05-15T12:32:36.427Z,98074.50
2023-05-15T12:34:41.741Z,98064.94
2023-05-15T12:36:47.034Z,98064.47
2023-05-15T12:38:52.346Z,98070.47
2023-05-15T12:40:58.039Z,98067.88
2023-05-15T12:43:08.543Z,98067.66
2023-05-15T12:45:18.972Z,98074.31
2023-05-15T12:47:31.292Z,98079.25
2023-05-15T12:49:39.142Z,98089.31
2023-05-15T12:51:47.670Z,98100.41
2023-05-15T12:53:57.670Z,98114.97
2023-05-15T12:56:04.885Z,98135.31
2023-05-15T12:58:12.873Z,98155.03
2023-05-15T13:00:21.570Z,98159.97
2023-05-15T13:02:29.432Z,98173.50
2023-05-15T13:04:36.331Z,98179.66
2023-05-15T13:06:46.865Z,98179.13
2023-05-15T13:08:53.068Z,98164.56
2023-05-15T13:11:01.418Z,98168.31
2023-05-15T13:13:06.695Z,98151.31
2023-05-15T13:15:29.432Z,98152.09
2023-05-15T13:17:40.419Z,98157.09
2023-05-15T13:19:45.499Z,98151.66
2023-05-15T13:21:51.323Z,98137.59
2023-05-15T13:23:56.428Z,98138.09
2023-05-15T13:26:01.689Z,98138.50
2023-05-15T13:28:10.686Z,98138.31
2023-05-15T13:30:17.396Z,98134.41
2023-05-15T13:32:22.469Z,98131.53
2023-05-15T13:34:30.166Z,98129.63
2023-05-15T13:36:47.299Z,98136.84
2023-05-15T13:38:52.358Z,98138.38
2023-05-15T13:40:57.780Z,98142.66
2023-05-15T13:43:02.887Z,98141.22
2023-05-15T13:45:10.135Z,98148.78
2023-05-15T13:47:15.614Z,98146.06
2023-05-15T13:49:21.568Z,98150.41
2023-05-15T13:51:29.310Z,98146.31
2023-05-15T13:53:36.109Z,98149.72
2023-05-15T13:55:41.208Z,98135.13
2023-05-15T13:57:47.076Z,98144.91
2023-05-15T13:59:52.260Z,98141.00
2023-05-15T14:01:57.333Z,98140.41
2023-05-15T14:04:02.389Z,98135.66
2023-05-15T14:06:09.336Z,98134.00
2023-05-15T14:08:17.173Z,98135.75
2023-05-15T14:10:23.461Z,98132.19
2023-05-15T14:12:28.797Z,98135.50
2023-05-15T14:14:34.177Z,98133.44
2023-05-15T14:16:39.297Z,98132.50
2023-05-15T14:18:44.870Z,98131.34
2023-05-15T14:20:49.975Z,98118.09
2023-05-15T14:22:55.249Z,98121.53
2023-05-15T14:25:03.688Z,98105.75
2023-05-15T14:27:09.242Z,98102.88
2023-05-15T14:29:14.888Z,98098.72
2023-05-15T14:31:20.015Z,98100.13
2023-05-15T14:33:25.107Z,98099.38
2023-05-15T14:35:30.212Z,98108.91
2023-05-15T14:37:35.348Z,98108.66
2023-05-15T14:39:40.682Z,98116.50
2023-05-15T14:41:49.631Z,98125.56
2023-05-15T14:43:55.526Z,98126.72
2023-05-15T14:46:00.722Z,98125.66
2023-05-15T14:48:05.945Z,98131.09
2023-05-15T14:50:11.616Z,98132.31
2023-05-15T14:52:16.691Z,98132.38
2023-05-15T14:54:21.967Z,98133.84
2023-05-15T14:56:27.295Z,98145.59
2023-05-15T14:58:35.350Z,98152.19
2023-05-15T15:00:40.627Z,98167.59
2023-05-15T15:02:46.468Z,98158.75
2023-05-15T15:04:51.683Z,98152.81
2023-05-15T15:06:57.288Z,98164.72
2023-05-15T15:09:02.460Z,98171.00
2023-05-15T15:11:08.921Z,98172.56
2023-05-15T15:13:14.709Z,98155.78
2023-05-15T15:15:22.782Z,98149.34
2023-05-15T15:17:28.091Z,98142.56
2023-05-15T15:19:33.408Z,98151.56
2023-05-15T15:21:38.716Z,98151.81
2023-05-15T15:23:44.200Z,98155.97
2023-05-15T15:25:49.259Z,98156.31
2023-05-15T15:27:54.437Z,98153.78
2023-05-15T15:29:59.481Z,98193.56
2023-05-15T15:32:07.905Z,98208.91
2023-05-15T15:34:13.065Z,98209.63
2023-05-15T15:36:18.323Z,98207.84
2023-05-15T15:38:23.391Z,98209.09
2023-05-15T15:40:30.062Z,98212.44
2023-05-15T15:42:35.689Z,98220.19
2023-05-15T15:44:41.077Z,98223.47
2023-05-15T15:46:46.493Z,98229.69
2023-05-15T15:48:54.359Z,98234.97
2023-05-15T15:50:59.533Z,98249.34
2023-05-15T15:53:04.583Z,98246.47
2023-05-15T15:55:12.506Z,98251.25
2023-05-15T15:57:18.427Z,98258.34
2023-05-15T15:59:23.762Z,98258.41
2023-05-15T16:01:29.119Z,98261.59
2023-05-15T16:03:34.397Z,98268.53
2023-05-15T16:05:42.402Z,98272.34
2023-05-15T16:07:48.020Z,98268.44
2023-05-15T16:10:04.183Z,98270.09
2023-05-15T16:12:16.811Z,98272.09
2023-05-15T16:14:22.360Z,98269.72
2023-05-15T16:16:27.525Z,98273.19
2023-05-15T16:18:32.594Z,98270.78
2023-05-15T16:20:37.690Z,98273.34
2023-05-15T16:22:45.568Z,98276.88
2023-05-15T16:24:51.500Z,98271.84
2023-05-15T16:26:56.758Z,98278.28
2023-05-15T16:29:02.022Z,98279.81
2023-05-15T16:31:08.136Z,98285.00
2023-05-15T16:33:13.811Z,98289.66
2023-05-15T16:35:20.712Z,98286.31
2023-05-15T16:37:25.881Z,98286.22
2023-05-15T16:39:35.354Z,98284.09
2023-05-15T16:41:40.699Z,98285.72
2023-05-15T16:43:45.846Z,98278.78
2023-05-15T16:45:50.978Z,98280.09
2023-05-15T16:47:56.528Z,98277.91
2023-05-15T16:50:01.641Z,98275.38
2023-05-15T16:52:07.326Z,98277.00
2023-05-15T16:54:12.807Z,98271.34
2023-05-15T16:56:21.034Z,98275.38
2023-05-15T16:58:26.536Z,98271.69
2023-05-15T17:00:31.829Z,98267.66
2023-05-15T17:02:36.966Z,98251.38
2023-05-15T17:04:42.133Z,98251.44
2023-05-15T17:06:47.225Z,98246.44
2023-05-15T17:08:52.623Z,98256.94
2023-05-15T17:10:57.738Z,98263.19
2023-05-15T17:13:06.081Z,98257.31
2023-05-15T17:15:12.284Z,98267.19
2023-05-15T17:17:17.570Z,98258.19
2023-05-15T17:19:22.719Z,98254.50
2023-05-15T17:21:27.820Z,98253.56
2023-05-15T17:23:33.475Z,98254.44
2023-05-15T17:25:38.611Z,98256.03
2023-05-15T17:27:44.195Z,98256.72
2023-05-15T17:29:52.009Z,98262.59
2023-05-15T17:31:57.472Z,98266.38
2023-05-15T17:34:03.534Z,98267.06
2023-05-15T17:36:09.935Z,98271.03
2023-05-15T17:38:15.013Z,98269.41
2023-05-15T17:40:20.260Z,98283.03
2023-05-15T17:42:25.538Z,98284.00
2023-05-15T17:44:31.327Z,98283.03
2023-05-15T17:46:38.959Z,98286.44
2023-05-15T17:48:44.005Z,98281.69
2023-05-15T17:50:49.091Z,98293.00
2023-05-15T17:52:54.172Z,98294.03
2023-05-15T17:54:59.362Z,98294.78
2023-05-15T17:57:04.479Z,98297.19
2023-05-15T17:59:09.679Z,98305.91
2023-05-15T18:01:15.692Z,98298.59
2023-05-15T18:03:23.676Z,98299.97
2023-05-15T18:05:29.190Z,98297.56
2023-05-15T18:07:34.569Z,98297.31
2023-05-15T18:09:39.623Z,98298.19
2023-05-15T18:11:44.752Z,98300.09
2023-05-15T18:13:49.828Z,98307.94
2023-05-15T18:15:54.891Z,98306.22
2023-05-15T18:18:00.124Z,98304.56
2023-05-15T18:20:10.030Z,98303.66
2023-05-15T18:22:15.836Z,98298.66
2023-05-15T18:24:20.938Z,98305.28
2023-05-15T18:26:26.056Z,98306.84
2023-05-15T18:28:31.212Z,98309.47
2023-05-15T18:30:37.503Z,98308.44
2023-05-15T18:32:42.664Z,98306.84
2023-05-15T18:34:48.040Z,98305.97
2023-05-15T18:36:55.743Z,98309.56
2023-05-15T18:39:01.365Z,98308.94
2023-05-15T18:41:06.543Z,98305.44
2023-05-15T18:43:11.726Z,98303.78
2023-05-15T18:45:17.014Z,98292.19
2023-05-15T18:47:22.351Z,98291.41
2023-05-15T18:49:27.802Z,98299.84
2023-05-15T18:51:32.865Z,98287.25
2023-05-15T18:53:40.545Z,98298.47
2023-05-15T18:55:45.570Z,98301.75
2023-05-15T18:57:51.061Z,98310.59
2023-05-15T18:59:56.190Z,98305.09
2023-05-15T19:02:01.309Z,98311.94
2023-05-15T19:04:06.668Z,98316.25
2023-05-15T19:06:13.534Z,98326.22
2023-05-15T19:08:18.852Z,98322.22
2023-05-15T19:10:29.260Z,98316.00
2023-05-15T19:12:34.578Z,98327.22
2023-05-15T19:14:39.657Z,98328.22
2023-05-15T19:16:45.128Z,98329.97
2023-05-15T19:18:50.283Z,98330.31
2023-05-15T19:20:57.048Z,98337.22
2023-05-15T19:23:02.141Z,98329.88
2023-05-15T19:25:08.834Z,98341.75
2023-05-15T19:27:17.086Z,98344.41
2023-05-15T19:29:22.198Z,98341.91
2023-05-15T19:31:31.298Z,98343.66
2023-05-15T19:33:37.326Z,98357.22
2023-05-15T19:35:42.747Z,98359.06
2023-05-15T19:37:47.918Z,98352.34
2023-05-15T19:39:53.068Z,98347.88
2023-05-15T19:41:58.605Z,98350.59
2023-05-15T19:44:08.401Z,98353.06
2023-05-15T19:46:13.522Z,98351.66
2023-05-15T19:48:18.644Z,98365.31
2023-05-15T19:50:24.206Z,98366.88
2023-05-15T19:52:29.328Z,98359.47
2023-05-15T19:54:34.401Z,98370.41
2023-05-15T19:56:39.515Z,98363.69
2023-05-15T19:58:45.059Z,98365.34
2023-05-15T20:00:52.841Z,98365.47
2023-05-15T20:02:58.186Z,98362.72
2023-05-15T20:05:03.479Z,98367.81
2023-05-15T20:07:08.990Z,98360.09
2023-05-15T20:09:14.051Z,98359.31
2023-05-15T20:11:19.161Z,98363.59
2023-05-15T20:13:24.775Z,98357.00
2023-05-15T20:15:31.801Z,98360.19
2023-05-15T20:17:39.656Z,98367.81
2023-05-15T20:19:44.840Z,98368.66
2023-05-15T20:21:50.092Z,98363.47
2023-05-15T20:23:55.151Z,98365.22
2023-05-15T20:26:00.245Z,98362.06
2023-05-15T20:28:05.802Z,98364.66
2023-05-15T20:30:12.632Z,98358.09
2023-05-15T20:32:17.738Z,98356.78
2023-05-15T20:34:25.430Z,98360.09
2023-05-15T20:36:32.717Z,98366.19
2023-05-15T20:38:38.775Z,98364.53
2023-05-15T20:40:43.851Z,98362.72
2023-05-15T20:42:48.888Z,98359.66
2023-05-15T20:44:54.587Z,98362.19
2023-05-15T20:46:59.689Z,98355.47
2023-05-15T20:49:04.718Z,98353.88
2023-05-15T20:51:12.599Z,98357.25
2023-05-15T20:53:17.693Z,98353.75
2023-05-15T20:55:23.246Z,98351.09
2023-05-15T20:57:28.521Z,98347.91
2023-05-15T20:59:34.048Z,98348.91
2023-05-15T21:01:39.391Z,98343.16
2023-05-15T21:03:45.344Z,98339.06
2023-05-15T21:05:51.343Z,98337.53
2023-05-15T21:07:59.336Z,98337.63
2023-05-15T21:10:04.566Z,98343.22
2023-05-15T21:12:10.761Z,98338.38
2023-05-15T21:14:16.027Z,98336.66
2023-05-15T21:16:21.166Z,98344.22
2023-05-15T21:18:26.857Z,98341.03
2023-05-15T21:20:34.916Z,98342.91
2023-05-15T21:22:40.307Z,98342.06
2023-05-15T21:24:48.113Z,98344.53
2023-05-15T21:26:53.450Z,98346.03
2023-05-15T21:29:00.042Z,98346.06
2023-05-15T21:31:10.395Z,98345.31
2023-05-15T21:33:15.924Z,98342.81
2023-05-15T21:35:20.983Z,98339.63
2023-05-15T21:37:26.115Z,98343.22
2023-05-15T21:39:31.163Z,98346.78
2023-05-15T21:41:39.015Z,98350.25
2023-05-15T21:43:44.337Z,98345.09
2023-05-15T21:45:49.364Z,98349.63
2023-05-15T21:47:54.458Z,98349.13
2023-05-15T21:49:59.538Z,98355.19
2023-05-15T21:52:04.596Z,98350.38
2023-05-15T21:54:09.940Z,98352.94
2023-05-15T21:56:15.034Z,98356.13
2023-05-15T21:58:22.681Z,98358.13
2023-05-15T22:00:28.344Z,98362.38
2023-05-15T22:02:33.603Z,98362.50
2023-05-15T22:04:38.928Z,98369.94
2023-05-15T22:06:43.988Z,98376.50
2023-05-15T22:08:49.142Z,98378.19
2023-05-15T22:10:56.378Z,98380.66
2023-05-15T22:13:02.864Z,98375.63
2023-05-15T22:15:14.850Z,98373.91
2023-05-15T22:17:21.149Z,98377.78
2023-05-15T22:19:33.210Z,98380.25
2023-05-15T22:21:38.686Z,98378.69
2023-05-15T22:23:43.955Z,98383.84
2023-05-15T22:25:49.398Z,98387.34
2023-05-15T22:27:54.531Z,98390.84
2023-05-15T22:30:00.130Z,98384.38
2023-05-15T22:32:09.347Z,98387.56
2023-05-15T22:34:14.807Z,98380.16
2023-05-15T22:36:19.945Z,98390.50
2023-05-15T22:38:25.054Z,98390.84
2023-05-15T22:40:30.576Z,98388.69
2023-05-15T22:42:35.686Z,98397.41
2023-05-15T22:44:41.256Z,98395.78
2023-05-15T22:46:47.040Z,98406.09
2023-05-15T22:48:55.183Z,98404.53
2023-05-15T22:51:00.481Z,98407.81
2023-05-15T22:53:05.838Z,98404.91
2023-05-15T22:55:13.106Z,98407.56
2023-05-15T22:57:18.181Z,98405.28
2023-05-15T22:59:23.966Z,98413.78
2023-05-15T23:01:30.083Z,98403.72
2023-05-15T23:03:35.437Z,98403.72
2023-05-15T23:05:43.415Z,98408.97
2023-05-15T23:07:48.863Z,98410.88
2023-05-15T23:09:54.286Z,98409.31
2023-05-15T23:11:59.347Z,98410.31
2023-05-15T23:14:04.745Z,98416.25
2023-05-15T23:16:10.108Z,98416.84
2023-05-15T23:18:16.345Z,98411.84
2023-05-15T23:20:22.036Z,98412.63
2023-05-15T23:22:30.171Z,98421.03
2023-05-15T23:24:35.251Z,98411.84
2023-05-15T23:26:40.826Z,98413.44
2023-05-15T23:28:46.005Z,98413.47
2023-05-15T23:30:51.333Z,98417.66
2023-05-15T23:32:57.265Z,98412.97
2023-05-15T23:35:02.343Z,98423.00
2023-05-15T23:37:08.026Z,98427.16
2023-05-15T23:39:16.576Z,98428.84
2023-05-15T23:41:22.115Z,98432.19
2023-05-15T23:43:27.192Z,98424.56
2023-05-15T23:45:32.790Z,98421.13
2023-05-15T23:47:37.891Z,98427.00
2023-05-15T23:49:43.232Z,98424.44
2023-05-15T23:51:48.338Z,98424.41
2023-05-15T23:53:53.395Z,98431.25
2023-05-15T23:56:01.385Z,98428.84
2023-05-15T23:58:06.764Z,98425.41
